Time;durP1;ratioP1;P1;durP2;ratioP2;P2;SDS_P1;SDS_P2;PMS_P1;PMS_P2;Temp;Humidity;BMP_temperature;BMP_pressure;BME280_temperature;BME280_humidity;BME280_pressure;Samples;Min_cycle;Max_cycle;Signal;HPM_P1;HPM_P2
2023/01/30 00:01:24;;;;;;;6.88;4.47;;;14.40;49.00;;;;;;5091334;27;45493;-66
2023/01/30 00:03:51;;;;;;;7.40;4.10;;;14.40;49.20;;;;;;5097730;27;45452;-66
2023/01/30 00:06:20;;;;;;;6.28;3.95;;;14.40;49.20;;;;;;5099313;27;46095;-67
2023/01/30 00:08:47;;;;;;;7.18;4.35;;;14.40;49.20;;;;;;5099686;27;45397;-66
2023/01/30 00:11:16;;;;;;;6.72;4.32;;;14.40;49.20;;;;;;5098027;27;45416;-67
2023/01/30 00:13:43;;;;;;;6.63;4.03;;;14.40;49.20;;;;;;5101256;27;45472;-66
2023/01/30 00:16:11;;;;;;;6.25;4.07;;;14.40;49.20;;;;;;5097437;27;45408;-66
2023/01/30 00:18:38;;;;;;;6.45;3.95;;;14.40;49.30;;;;;;5091589;27;45415;-66
2023/01/30 00:21:07;;;;;;;7.20;4.47;;;14.40;49.30;;;;;;5098908;27;45368;-66
2023/01/30 00:23:37;;;;;;;6.53;4.15;;;14.40;49.30;;;;;;5092187;27;45686;-66
2023/01/30 00:26:04;;;;;;;6.55;4.30;;;14.40;49.40;;;;;;5099065;27;46712;-66
2023/01/30 00:28:31;;;;;;;6.63;4.22;;;14.40;49.30;;;;;;5094005;27;45715;-66
2023/01/30 00:30:58;;;;;;;5.68;3.55;;;14.30;49.40;;;;;;5094261;27;45268;-66
2023/01/30 00:33:26;;;;;;;5.65;4.00;;;14.40;49.60;;;;;;5099453;27;45637;-66
2023/01/30 00:35:55;;;;;;;7.05;4.22;;;14.30;49.60;;;;;;5098386;27;46415;-66
2023/01/30 00:38:23;;;;;;;6.90;4.45;;;14.30;49.70;;;;;;5102725;27;45453;-66
2023/01/30 00:40:51;;;;;;;6.03;3.85;;;14.30;49.80;;;;;;5100151;27;45430;-66
2023/01/30 00:48:54;;;;;;;7.63;4.80;;;14.40;50.00;;;;;;5101432;27;45260;-66
2023/01/30 00:51:21;;;;;;;6.57;4.53;;;14.40;50.20;;;;;;5096909;27;45588;-67
2023/01/30 00:53:48;;;;;;;8.35;4.53;;;14.40;50.10;;;;;;5104136;27;45301;-66
2023/01/30 00:56:16;;;;;;;9.07;4.47;;;14.40;50.20;;;;;;5102667;27;47364;-66
2023/01/30 00:58:43;;;;;;;6.72;3.97;;;14.40;50.30;;;;;;5096375;27;45380;-67
2023/01/30 01:01:10;;;;;;;6.45;4.00;;;14.40;50.30;;;;;;5089788;27;45566;-66
2023/01/30 01:03:36;;;;;;;7.35;4.55;;;14.50;50.40;;;;;;5089017;27;45406;-66
2023/01/30 01:06:04;;;;;;;7.20;4.55;;;14.40;50.30;;;;;;5091073;27;46308;-66
2023/01/30 01:08:30;;;;;;;5.80;3.85;;;14.40;50.30;;;;;;5093696;27;45478;-66
2023/01/30 01:10:58;;;;;;;6.30;4.00;;;14.40;50.30;;;;;;5095228;27;45382;-66
2023/01/30 01:13:26;;;;;;;7.18;4.25;;;14.40;51.60;;;;;;5101152;27;45404;-66
2023/01/30 01:15:53;;;;;;;6.22;4.07;;;14.40;50.40;;;;;;5086045;27;47948;-68
2023/01/30 01:18:20;;;;;;;5.95;3.65;;;14.40;50.40;;;;;;5088199;27;45440;-66
2023/01/30 01:20:47;;;;;;;5.00;3.58;;;14.40;50.40;;;;;;5087818;27;45275;-67
2023/01/30 01:23:14;;;;;;;6.35;3.78;;;14.40;50.50;;;;;;5092398;27;45406;-66
2023/01/30 01:25:41;;;;;;;7.63;4.47;;;14.40;50.60;;;;;;5091149;27;48353;-66
2023/01/30 01:28:08;;;;;;;6.00;3.92;;;14.40;50.70;;;;;;5103137;27;45310;-66
2023/01/30 01:30:38;;;;;;;7.57;4.13;;;14.40;50.70;;;;;;5101924;27;45478;-66
2023/01/30 01:33:05;;;;;;;7.72;3.85;;;14.40;50.80;;;;;;5101617;27;45200;-66
2023/01/30 01:35:31;;;;;;;7.45;4.32;;;14.40;50.70;;;;;;5096370;27;45527;-66
2023/01/30 01:37:58;;;;;;;6.78;4.03;;;14.40;50.80;;;;;;5101141;27;45529;-66
2023/01/30 01:43:16;;;;;;;6.85;4.80;;;14.50;51.00;;;;;;5093329;27;45261;-66
2023/01/30 01:45:45;;;;;;;6.25;4.10;;;14.50;50.90;;;;;;5094241;27;45510;-67
2023/01/30 01:48:16;;;;;;;7.32;3.88;;;14.50;51.10;;;;;;5096408;27;45498;-66
2023/01/30 01:50:48;;;;;;;6.97;4.07;;;14.50;51.10;;;;;;5098286;27;45423;-66
2023/01/30 01:53:18;;;;;;;7.22;4.00;;;14.50;51.10;;;;;;5091624;27;45624;-66
2023/01/30 01:55:49;;;;;;;6.68;4.45;;;14.50;51.10;;;;;;5088396;27;45468;-66
2023/01/30 01:58:19;;;;;;;8.82;4.00;;;14.50;51.00;;;;;;5089886;27;45320;-67
2023/01/30 02:00:48;;;;;;;5.90;3.70;;;14.50;51.10;;;;;;5095154;27;45411;-67
2023/01/30 02:03:21;;;;;;;7.43;3.78;;;14.50;51.20;;;;;;5101184;27;45470;-66
2023/01/30 02:05:52;;;;;;;6.50;4.00;;;14.40;51.10;;;;;;5091692;27;48205;-66
2023/01/30 02:08:24;;;;;;;8.18;3.58;;;14.40;51.10;;;;;;5100300;27;45265;-67
2023/01/30 02:10:56;;;;;;;6.93;3.58;;;14.40;51.20;;;;;;5092026;27;45361;-66
2023/01/30 02:13:23;;;;;;;6.18;3.67;;;14.40;52.40;;;;;;5093955;27;45269;-66
2023/01/30 02:15:52;;;;;;;8.40;4.15;;;14.40;51.30;;;;;;5099287;27;46415;-66
2023/01/30 02:18:19;;;;;;;6.07;3.95;;;14.40;51.40;;;;;;5098161;27;46636;-66
2023/01/30 02:21:03;;;;;;;6.78;4.30;;;14.40;51.60;;;;;;5103399;27;45400;-66
2023/01/30 02:24:00;;;;;;;4.88;3.58;;;14.40;51.70;;;;;;5101008;27;45627;-67
2023/01/30 02:26:53;;;;;;;7.13;4.25;;;14.50;51.60;;;;;;5099820;27;46155;-66
2023/01/30 02:29:55;;;;;;;7.53;4.18;;;14.50;51.80;;;;;;5094466;27;45533;-66
2023/01/30 02:32:33;;;;;;;9.18;3.88;;;14.50;51.90;;;;;;5087523;27;45618;-66
2023/01/30 02:35:05;;;;;;;8.18;3.78;;;14.50;51.80;;;;;;5095543;27;45494;-66
2023/01/30 02:37:46;;;;;;;5.88;3.47;;;14.50;51.80;;;;;;5095018;27;46112;-66
2023/01/30 02:40:30;;;;;;;6.07;4.00;;;14.50;51.90;;;;;;5093421;27;45299;-66
2023/01/30 02:43:06;;;;;;;6.43;3.78;;;14.50;52.10;;;;;;5097057;27;45329;-67
2023/01/30 02:45:37;;;;;;;8.20;4.43;;;14.50;51.90;;;;;;5100755;27;45472;-67
2023/01/30 02:48:07;;;;;;;6.90;3.88;;;14.50;53.10;;;;;;5096212;27;45604;-66
2023/01/30 02:50:40;;;;;;;6.65;3.70;;;14.40;51.90;;;;;;5091390;27;45363;-66
2023/01/30 02:53:07;;;;;;;5.85;3.60;;;14.50;51.90;;;;;;5101422;27;45345;-67
2023/01/30 02:55:35;;;;;;;5.40;3.70;;;14.50;52.10;;;;;;5097816;27;45255;-67
2023/01/30 02:58:03;;;;;;;5.25;3.72;;;14.50;52.10;;;;;;5102477;27;46410;-66
2023/01/30 03:00:48;;;;;;;7.13;3.47;;;14.50;52.10;;;;;;5097934;27;45545;-66
2023/01/30 03:03:36;;;;;;;5.57;3.58;;;14.40;52.10;;;;;;5098290;27;45336;-67
2023/01/30 03:06:24;;;;;;;5.75;3.60;;;14.40;52.20;;;;;;5091103;27;45448;-66
2023/01/30 03:09:03;;;;;;;6.68;4.00;;;14.40;52.40;;;;;;5094546;27;45314;-67
2023/01/30 03:11:40;;;;;;;7.70;4.07;;;14.40;52.50;;;;;;5101260;27;45841;-67
2023/01/30 03:14:18;;;;;;;6.72;3.83;;;14.50;52.50;;;;;;5096861;27;45358;-66
2023/01/30 03:16:46;;;;;;;5.30;3.67;;;14.50;52.50;;;;;;5093223;27;45360;-66
2023/01/30 03:19:14;;;;;;;6.07;3.80;;;14.50;52.60;;;;;;5101030;27;45504;-66
2023/01/30 03:21:43;;;;;;;8.00;3.65;;;14.50;52.50;;;;;;5101375;27;45265;-66
2023/01/30 03:24:10;;;;;;;6.35;4.10;;;14.50;52.50;;;;;;5096663;27;45459;-67
2023/01/30 03:26:45;;;;;;;5.45;3.75;;;14.50;52.40;;;;;;5098355;27;45240;-66
2023/01/30 03:29:12;;;;;;;5.60;3.75;;;14.50;52.50;;;;;;5097433;27;47084;-66
2023/01/30 03:31:38;;;;;;;5.97;3.47;;;14.50;52.50;;;;;;5102379;27;45435;-66
2023/01/30 03:34:05;;;;;;;6.20;3.60;;;14.50;52.50;;;;;;5094384;27;45346;-67
2023/01/30 03:36:33;;;;;;;7.70;3.78;;;14.50;52.50;;;;;;5092398;27;45372;-66
2023/01/30 03:39:00;;;;;;;4.75;3.20;;;14.50;52.50;;;;;;5094330;27;45234;-67
2023/01/30 03:41:27;;;;;;;5.10;3.60;;;14.50;52.40;;;;;;5095415;27;45539;-67
2023/01/30 03:43:54;;;;;;;5.60;3.40;;;14.50;52.50;;;;;;5099641;27;45393;-66
2023/01/30 03:46:21;;;;;;;5.68;3.78;;;14.50;52.50;;;;;;5100607;27;45555;-67
2023/01/30 03:48:47;;;;;;;6.78;3.67;;;14.50;52.50;;;;;;5104472;27;47582;-67
2023/01/30 03:51:14;;;;;;;6.68;3.92;;;14.50;52.50;;;;;;5103847;27;45455;-67
2023/01/30 03:53:42;;;;;;;6.75;3.40;;;14.40;52.50;;;;;;5100492;27;45333;-67
2023/01/30 03:56:09;;;;;;;8.55;4.30;;;14.40;52.50;;;;;;5103747;27;45352;-66
2023/01/30 03:58:36;;;;;;;6.30;3.83;;;14.40;52.60;;;;;;5098141;27;46634;-66
2023/01/30 04:01:02;;;;;;;7.97;4.10;;;14.40;52.50;;;;;;5103723;27;45450;-66
2023/01/30 04:03:29;;;;;;;6.80;3.90;;;14.40;52.50;;;;;;5103237;27;45242;-66
2023/01/30 04:05:56;;;;;;;8.02;3.97;;;14.50;52.40;;;;;;5105022;27;45325;-66
2023/01/30 04:08:23;;;;;;;6.80;4.15;;;14.50;52.40;;;;;;5095438;27;46388;-66
2023/01/30 04:10:51;;;;;;;5.82;3.90;;;14.50;52.60;;;;;;5095356;27;45355;-67
2023/01/30 04:13:17;;;;;;;5.25;3.60;;;14.50;52.50;;;;;;5096860;27;45348;-67
2023/01/30 04:15:44;;;;;;;5.07;3.60;;;14.50;52.50;;;;;;5103598;27;45400;-66
2023/01/30 04:18:11;;;;;;;6.75;3.75;;;14.50;52.20;;;;;;5093636;27;47276;-66
2023/01/30 04:20:38;;;;;;;6.20;3.72;;;14.60;52.50;;;;;;5104565;27;45502;-67
2023/01/30 04:23:05;;;;;;;5.57;3.60;;;14.60;52.50;;;;;;5103501;27;45506;-66
2023/01/30 04:25:32;;;;;;;7.93;4.03;;;14.60;52.70;;;;;;5100490;27;45424;-66
2023/01/30 04:28:00;;;;;;;7.82;3.70;;;14.50;52.90;;;;;;5103171;27;46610;-67
2023/01/30 04:30:27;;;;;;;5.60;3.63;;;14.50;53.00;;;;;;5096194;27;45230;-66
2023/01/30 04:32:53;;;;;;;6.38;4.03;;;14.40;52.90;;;;;;5098385;27;45308;-67
2023/01/30 04:35:20;;;;;;;5.13;3.40;;;14.50;53.10;;;;;;5101758;27;45464;-66
2023/01/30 04:37:47;;;;;;;6.05;3.60;;;14.40;53.00;;;;;;5104501;27;46649;-66
2023/01/30 04:40:13;;;;;;;5.75;3.85;;;14.40;53.10;;;;;;5105205;27;45248;-67
2023/01/30 04:42:40;;;;;;;6.38;3.72;;;14.40;52.90;;;;;;5103610;27;45230;-66
2023/01/30 04:45:09;;;;;;;6.50;4.13;;;14.40;53.00;;;;;;5105202;27;45214;-67
2023/01/30 04:47:36;;;;;;;7.03;4.07;;;14.40;53.00;;;;;;5104053;27;45571;-67
2023/01/30 04:50:03;;;;;;;5.32;3.38;;;14.40;53.10;;;;;;5098638;27;45428;-67
2023/01/30 04:52:30;;;;;;;5.90;3.67;;;14.40;52.90;;;;;;5098794;27;45318;-67
2023/01/30 04:54:56;;;;;;;5.13;3.13;;;14.50;53.00;;;;;;5096522;27;45425;-66
2023/01/30 04:57:23;;;;;;;6.57;3.55;;;14.40;52.90;;;;;;5101768;27;47509;-66
2023/01/30 04:59:50;;;;;;;6.70;3.80;;;14.50;53.00;;;;;;5103631;27;45373;-66
2023/01/30 05:02:18;;;;;;;5.03;3.50;;;14.50;53.10;;;;;;5104411;27;45277;-67
2023/01/30 05:04:45;;;;;;;8.88;4.07;;;14.50;53.10;;;;;;5096676;27;45314;-66
2023/01/30 05:07:12;;;;;;;5.95;3.88;;;14.50;53.00;;;;;;5096759;27;48145;-66
2023/01/30 05:09:38;;;;;;;6.22;3.53;;;14.50;53.00;;;;;;5102109;27;45676;-66
2023/01/30 05:12:05;;;;;;;5.93;3.67;;;14.50;52.90;;;;;;5100590;27;45432;-67
2023/01/30 05:14:33;;;;;;;6.07;3.75;;;14.50;53.00;;;;;;5093629;27;45566;-66
2023/01/30 05:17:00;;;;;;;5.25;3.25;;;14.50;53.10;;;;;;5097945;27;46532;-67
2023/01/30 05:19:28;;;;;;;6.47;3.33;;;14.50;53.20;;;;;;5094989;27;45426;-66
2023/01/30 05:21:55;;;;;;;5.38;3.75;;;14.50;53.40;;;;;;5102400;27;45417;-66
2023/01/30 05:24:22;;;;;;;5.57;3.75;;;14.40;53.30;;;;;;5098182;27;45331;-66
2023/01/30 05:26:49;;;;;;;5.63;3.38;;;14.50;53.40;;;;;;5100813;27;46397;-66
2023/01/30 05:29:15;;;;;;;5.13;3.30;;;14.40;53.30;;;;;;5102670;27;45591;-66
2023/01/30 05:31:42;;;;;;;4.28;3.03;;;14.40;53.30;;;;;;5094092;27;45377;-65
2023/01/30 05:34:11;;;;;;;5.25;3.17;;;14.40;53.50;;;;;;5097532;27;45431;-66
2023/01/30 05:36:39;;;;;;;3.95;2.55;;;14.40;53.40;;;;;;5096446;27;45549;-67
2023/01/30 05:39:06;;;;;;;4.90;2.88;;;14.40;53.50;;;;;;5103203;27;45640;-67
2023/01/30 05:41:33;;;;;;;4.93;2.80;;;14.40;53.30;;;;;;5093776;27;45276;-66
2023/01/30 05:44:00;;;;;;;4.95;2.80;;;14.50;53.40;;;;;;5097758;27;45528;-66
2023/01/30 05:46:26;;;;;;;4.25;2.70;;;14.50;53.40;;;;;;5097562;27;46071;-67
2023/01/30 05:48:53;;;;;;;4.25;2.65;;;14.50;53.60;;;;;;5097091;27;45470;-67
2023/01/30 05:51:23;;;;;;;5.22;2.47;;;14.50;53.60;;;;;;5087023;27;45587;-67
2023/01/30 05:53:51;;;;;;;3.10;2.30;;;14.50;53.60;;;;;;5094749;27;45367;-67
2023/01/30 05:56:19;;;;;;;4.25;2.80;;;14.50;53.70;;;;;;5094358;27;46268;-67
2023/01/30 05:58:50;;;;;;;3.55;2.72;;;14.50;53.50;;;;;;5094208;27;45481;-66
2023/01/30 06:01:17;;;;;;;4.47;2.67;;;14.50;53.40;;;;;;5092121;27;45290;-66
2023/01/30 06:03:44;;;;;;;3.33;2.35;;;14.50;53.60;;;;;;5090799;27;45453;-66
2023/01/30 06:06:12;;;;;;;4.72;2.60;;;14.50;53.70;;;;;;5089688;27;45420;-66
2023/01/30 06:08:39;;;;;;;3.35;2.30;;;14.50;53.70;;;;;;5088653;27;45375;-66
2023/01/30 06:11:10;;;;;;;3.72;2.33;;;14.50;53.80;;;;;;5094255;27;45327;-66
2023/01/30 06:13:37;;;;;;;4.00;2.50;;;14.40;53.90;;;;;;5095566;27;45384;-66
2023/01/30 06:16:04;;;;;;;3.22;2.20;;;14.40;54.00;;;;;;5092308;27;46633;-66
2023/01/30 06:18:31;;;;;;;3.72;2.33;;;14.50;53.80;;;;;;5090408;27;45681;-66
2023/01/30 06:20:58;;;;;;;3.35;2.45;;;14.40;53.80;;;;;;5095565;27;45319;-66
2023/01/30 06:23:25;;;;;;;3.45;2.47;;;14.50;53.20;;;;;;5095907;27;45364;-66
2023/01/30 06:25:53;;;;;;;3.45;2.25;;;14.50;53.80;;;;;;5098834;27;46397;-66
2023/01/30 06:28:22;;;;;;;3.35;2.20;;;14.50;53.60;;;;;;5105597;27;45446;-66
2023/01/30 06:30:49;;;;;;;3.53;2.05;;;14.50;53.60;;;;;;5096532;27;45361;-66
2023/01/30 06:33:16;;;;;;;2.25;1.88;;;14.50;53.60;;;;;;5104828;27;45449;-66
2023/01/30 06:35:43;;;;;;;3.63;2.30;;;14.60;53.70;;;;;;5106435;27;47353;-66
2023/01/30 06:38:13;;;;;;;3.10;2.20;;;14.60;53.70;;;;;;5103119;27;45429;-66
2023/01/30 06:40:40;;;;;;;3.40;1.50;;;14.50;53.70;;;;;;5101204;27;45379;-67
2023/01/30 06:43:07;;;;;;;2.92;2.00;;;14.50;53.50;;;;;;5105039;27;45467;-66
2023/01/30 06:45:35;;;;;;;3.50;2.00;;;14.60;53.80;;;;;;5108295;27;48140;-66
2023/01/30 06:48:02;;;;;;;2.45;1.60;;;14.60;53.70;;;;;;5100210;27;45356;-66
2023/01/30 06:50:29;;;;;;;2.25;1.70;;;14.60;53.70;;;;;;5102776;27;45412;-67
2023/01/30 06:52:57;;;;;;;3.70;2.00;;;14.50;54.30;;;;;;5102919;27;45218;-67
2023/01/30 06:55:27;;;;;;;2.65;1.60;;;14.50;54.70;;;;;;5103032;27;45531;-66
2023/01/30 06:58:02;;;;;;;2.78;1.70;;;14.50;54.90;;;;;;5101140;27;45921;-66
2023/01/30 07:00:29;;;;;;;3.13;1.80;;;14.50;55.10;;;;;;5104793;27;45318;-67
2023/01/30 07:02:57;;;;;;;2.33;1.60;;;14.50;55.20;;;;;;5102131;27;45240;-66
2023/01/30 07:05:25;;;;;;;4.05;1.90;;;14.50;55.50;;;;;;5095441;27;46076;-66
2023/01/30 07:07:52;;;;;;;3.03;1.70;;;14.50;55.70;;;;;;5102495;27;45450;-67
2023/01/30 07:10:19;;;;;;;3.63;1.92;;;14.50;55.60;;;;;;5104073;27;45442;-67
2023/01/30 07:12:46;;;;;;;3.72;1.80;;;14.50;55.80;;;;;;5105192;27;45391;-67
2023/01/30 07:15:13;;;;;;;3.35;1.90;;;14.50;55.90;;;;;;5099187;27;45335;-66
2023/01/30 07:17:40;;;;;;;2.80;1.80;;;14.50;55.70;;;;;;5111770;27;45604;-67
2023/01/30 07:20:10;;;;;;;1.88;1.40;;;14.50;55.90;;;;;;5091495;27;46740;-66
2023/01/30 07:22:37;;;;;;;3.17;1.70;;;14.50;55.90;;;;;;5096613;27;45680;-67
2023/01/30 07:25:05;;;;;;;1.92;1.50;;;14.60;55.80;;;;;;5105260;27;47352;-67
2023/01/30 07:27:31;;;;;;;2.58;1.30;;;14.60;55.90;;;;;;5104613;27;45696;-67
2023/01/30 07:29:58;;;;;;;1.90;1.33;;;14.60;55.70;;;;;;5105066;27;45470;-67
2023/01/30 07:32:25;;;;;;;1.58;1.30;;;14.60;55.80;;;;;;5104234;27;45253;-67
2023/01/30 07:34:52;;;;;;;2.67;1.40;;;14.60;55.90;;;;;;5105394;27;47227;-67
2023/01/30 07:37:20;;;;;;;1.73;1.20;;;14.60;56.10;;;;;;5105071;27;45316;-67
2023/01/30 07:39:47;;;;;;;3.63;1.75;;;14.60;55.90;;;;;;5105435;27;45463;-66
2023/01/30 07:42:14;;;;;;;1.90;1.30;;;14.60;56.20;;;;;;5106338;27;45402;-67
2023/01/30 07:44:40;;;;;;;1.88;1.20;;;14.60;56.20;;;;;;5105798;27;45378;-67
2023/01/30 07:47:07;;;;;;;1.88;1.10;;;14.60;56.30;;;;;;5104918;27;45386;-67
2023/01/30 07:49:34;;;;;;;1.75;1.20;;;14.60;56.30;;;;;;5105926;27;45272;-67
2023/01/30 07:52:01;;;;;;;1.50;0.95;;;14.60;56.30;;;;;;5105861;27;45405;-67
2023/01/30 07:54:29;;;;;;;3.60;1.73;;;14.60;56.40;;;;;;5105329;27;47535;-67
2023/01/30 07:56:56;;;;;;;3.25;1.55;;;14.50;56.40;;;;;;5097007;27;45364;-67
2023/01/30 07:59:22;;;;;;;1.83;1.38;;;14.60;56.60;;;;;;5105813;27;45313;-67
2023/01/30 08:01:49;;;;;;;1.85;1.15;;;14.60;56.80;;;;;;5105942;27;45369;-68
2023/01/30 08:04:16;;;;;;;1.30;1.20;;;14.60;57.00;;;;;;5105831;27;47991;-67
2023/01/30 08:06:43;;;;;;;1.50;1.25;;;14.60;56.80;;;;;;5099411;27;45996;-67
2023/01/30 08:09:10;;;;;;;2.35;1.60;;;14.60;56.70;;;;;;5105827;27;45406;-67
2023/01/30 08:11:38;;;;;;;1.95;1.30;;;14.60;56.90;;;;;;5105237;27;45444;-67
2023/01/30 08:14:04;;;;;;;3.35;1.55;;;14.60;56.80;;;;;;5099762;27;45314;-67
2023/01/30 08:16:32;;;;;;;1.25;1.10;;;14.60;56.90;;;;;;5104414;27;45469;-68
2023/01/30 08:18:59;;;;;;;1.30;1.17;;;14.60;56.90;;;;;;5105492;27;45240;-67
2023/01/30 08:21:27;;;;;;;2.63;1.45;;;14.60;57.00;;;;;;5105118;27;45565;-67
2023/01/30 08:23:53;;;;;;;2.15;1.48;;;14.70;57.10;;;;;;5105447;27;46329;-67
2023/01/30 08:26:20;;;;;;;4.15;1.48;;;14.60;57.00;;;;;;5104103;27;45280;-67
2023/01/30 08:28:49;;;;;;;3.17;1.73;;;14.60;56.90;;;;;;5105444;27;45261;-67
2023/01/30 08:31:17;;;;;;;2.45;1.20;;;14.60;56.80;;;;;;5098462;27;45383;-68
2023/01/30 08:33:44;;;;;;;4.68;1.77;;;14.60;57.00;;;;;;5096834;27;46533;-67
2023/01/30 08:36:11;;;;;;;3.45;1.58;;;14.60;58.30;;;;;;5104431;27;45780;-67
2023/01/30 08:38:38;;;;;;;2.75;1.40;;;14.60;57.20;;;;;;5105305;27;45284;-67
2023/01/30 08:41:06;;;;;;;2.80;1.50;;;14.50;57.10;;;;;;5104348;27;45345;-67
2023/01/30 08:43:33;;;;;;;3.08;1.52;;;14.50;57.10;;;;;;5104656;27;48249;-67
2023/01/30 08:46:01;;;;;;;5.32;1.52;;;14.50;57.10;;;;;;5104596;27;45374;-67
2023/01/30 08:48:28;;;;;;;2.90;1.83;;;14.50;57.00;;;;;;5098570;27;45379;-66
2023/01/30 08:50:57;;;;;;;4.80;1.42;;;14.50;56.90;;;;;;5105150;27;45488;-67
2023/01/30 08:53:24;;;;;;;2.20;1.33;;;14.50;56.80;;;;;;5104767;27;46375;-67
2023/01/30 08:55:51;;;;;;;3.03;1.50;;;14.50;56.50;;;;;;5104271;27;45296;-67
2023/01/30 08:58:18;;;;;;;4.38;1.83;;;14.50;56.50;;;;;;5104898;27;45272;-67
2023/01/30 09:00:45;;;;;;;4.63;1.55;;;14.50;56.50;;;;;;5104852;27;45549;-67
2023/01/30 09:03:14;;;;;;;3.17;1.50;;;14.60;56.30;;;;;;5106212;27;45272;-67
2023/01/30 09:05:41;;;;;;;4.10;1.63;;;14.60;56.20;;;;;;5094853;27;45462;-67
2023/01/30 09:08:08;;;;;;;5.15;1.60;;;14.60;56.00;;;;;;5096557;27;45363;-67
2023/01/30 09:10:36;;;;;;;3.45;1.30;;;14.60;56.00;;;;;;5088972;27;45601;-67
2023/01/30 09:13:04;;;;;;;3.63;1.33;;;14.70;56.20;;;;;;5096822;27;47062;-67
2023/01/30 09:15:30;;;;;;;3.90;1.40;;;14.60;56.20;;;;;;5097801;27;45321;-67
2023/01/30 09:17:57;;;;;;;2.92;1.33;;;14.60;56.20;;;;;;5100789;27;45431;-67
2023/01/30 09:20:26;;;;;;;2.90;1.10;;;14.70;56.50;;;;;;5093930;27;45431;-68
2023/01/30 09:22:53;;;;;;;3.88;1.20;;;14.60;56.50;;;;;;5095340;27;47956;-67
2023/01/30 09:25:19;;;;;;;3.95;1.25;;;14.70;56.60;;;;;;5097407;27;45364;-67
2023/01/30 09:27:48;;;;;;;3.95;1.20;;;14.60;56.60;;;;;;5101209;27;45591;-67
2023/01/30 09:30:16;;;;;;;3.80;1.38;;;14.70;56.70;;;;;;5105896;27;45340;-68
2023/01/30 09:32:43;;;;;;;3.50;1.30;;;14.60;56.80;;;;;;5102371;27;45346;-68
2023/01/30 09:35:10;;;;;;;3.53;1.15;;;14.70;56.90;;;;;;5099084;27;45361;-67
2023/01/30 09:37:38;;;;;;;2.60;1.10;;;14.70;56.90;;;;;;5103647;27;45345;-67
2023/01/30 09:40:06;;;;;;;4.40;1.30;;;14.70;58.20;;;;;;5105253;27;45423;-68
2023/01/30 09:43:00;;;;;;;2.47;1.20;;;14.70;57.00;;;;;;5104715;27;45562;-68
2023/01/30 09:45:59;;;;;;;5.05;1.30;;;14.70;56.70;;;;;;5106236;27;45447;-67
2023/01/30 09:48:32;;;;;;;2.40;1.08;;;14.70;56.80;;;;;;5075931;27;45695;-67
2023/01/30 09:51:13;;;;;;;2.78;1.05;;;14.70;56.70;;;;;;5109837;27;45479;-67
2023/01/30 09:53:55;;;;;;;3.05;0.98;;;14.70;56.60;;;;;;5102755;27;47107;-67
2023/01/30 09:56:22;;;;;;;3.70;1.23;;;14.80;56.60;;;;;;5096299;27;45261;-67
2023/01/30 09:58:53;;;;;;;4.95;0.98;;;14.80;56.70;;;;;;5103468;27;45314;-67
2023/01/30 10:01:27;;;;;;;4.60;1.25;;;14.80;56.70;;;;;;5106549;27;45360;-67
2023/01/30 10:04:02;;;;;;;3.20;1.13;;;14.80;56.80;;;;;;5099481;27;46373;-67
2023/01/30 10:06:31;;;;;;;4.97;1.48;;;14.80;56.70;;;;;;5106368;27;45364;-68
2023/01/30 10:09:08;;;;;;;2.90;1.17;;;14.80;56.70;;;;;;5091648;27;45376;-67
2023/01/30 10:11:49;;;;;;;2.78;0.90;;;14.80;56.60;;;;;;5100878;27;45504;-68
2023/01/30 10:14:29;;;;;;;4.35;1.60;;;14.70;56.60;;;;;;5094961;27;45427;-67
2023/01/30 10:17:09;;;;;;;2.72;1.00;;;14.70;56.50;;;;;;5097215;27;45407;-68
2023/01/30 10:19:55;;;;;;;5.35;1.35;;;14.70;56.40;;;;;;5100322;27;45383;-67
2023/01/30 10:22:37;;;;;;;5.30;1.00;;;14.80;56.60;;;;;;5110392;27;45250;-68
2023/01/30 10:25:18;;;;;;;5.10;1.27;;;14.80;56.50;;;;;;5095134;27;46294;-67
2023/01/30 10:27:50;;;;;;;5.28;1.20;;;14.80;56.30;;;;;;5104956;27;45733;-67
2023/01/30 10:30:17;;;;;;;3.55;0.95;;;14.80;56.30;;;;;;5098901;27;45633;-67
2023/01/30 10:32:50;;;;;;;3.45;1.40;;;14.70;56.20;;;;;;5102747;27;45853;-68
2023/01/30 10:35:21;;;;;;;4.30;1.27;;;14.70;56.10;;;;;;5102397;27;47427;-67
2023/01/30 10:37:55;;;;;;;3.25;1.02;;;14.70;55.90;;;;;;5102025;27;45399;-68
2023/01/30 10:40:29;;;;;;;4.22;1.17;;;14.70;55.80;;;;;;5099424;27;45464;-67
2023/01/30 10:43:03;;;;;;;5.10;1.10;;;14.70;55.60;;;;;;5102996;27;45420;-67
2023/01/30 10:45:38;;;;;;;3.08;0.85;;;14.60;55.40;;;;;;5111679;27;48202;-67
2023/01/30 10:48:20;;;;;;;7.35;1.60;;;14.70;55.30;;;;;;5101160;27;45441;-67
2023/01/30 10:50:52;;;;;;;6.20;1.40;;;14.70;55.30;;;;;;5095243;27;45554;-67
2023/01/30 10:53:26;;;;;;;7.13;1.55;;;14.60;55.10;;;;;;5103500;27;45312;-67
2023/01/30 10:56:01;;;;;;;4.45;1.42;;;14.60;55.00;;;;;;5102932;27;46289;-67
2023/01/30 10:58:33;;;;;;;5.50;1.48;;;14.60;54.80;;;;;;5102439;27;45395;-67
2023/01/30 11:01:01;;;;;;;3.70;1.30;;;14.60;54.90;;;;;;5092162;27;45380;-68
2023/01/30 11:03:37;;;;;;;3.92;1.35;;;14.60;54.80;;;;;;5102032;27;45301;-67
2023/01/30 11:06:10;;;;;;;5.80;1.17;;;14.60;54.70;;;;;;5098811;27;47546;-67
2023/01/30 11:08:37;;;;;;;5.38;1.23;;;14.60;54.50;;;;;;5106662;27;45399;-67
2023/01/30 11:11:26;;;;;;;6.90;1.35;;;14.50;54.40;;;;;;5102722;27;45229;-67
2023/01/30 11:14:02;;;;;;;4.07;1.30;;;14.60;54.40;;;;;;5089678;27;45391;-67
2023/01/30 11:16:29;;;;;;;5.80;1.30;;;14.60;54.30;;;;;;5095613;27;46390;-67
2023/01/30 11:18:58;;;;;;;7.63;1.90;;;14.60;54.10;;;;;;5084324;27;45863;-66
2023/01/30 11:21:28;;;;;;;5.30;1.80;;;14.60;53.90;;;;;;5097868;27;45518;-67
2023/01/30 11:23:55;;;;;;;4.80;1.55;;;14.60;53.70;;;;;;5095755;27;45392;-67
2023/01/30 11:26:28;;;;;;;10.30;1.60;;;14.60;53.70;;;;;;5101978;27;48066;-67
2023/01/30 11:28:55;;;;;;;4.20;1.20;;;14.60;53.60;;;;;;5097286;27;45340;-67
2023/01/30 11:31:25;;;;;;;6.32;1.33;;;14.60;53.60;;;;;;5103859;27;45420;-68
2023/01/30 11:34:00;;;;;;;5.43;1.40;;;14.60;53.40;;;;;;5104224;27;45512;-67
2023/01/30 11:36:34;;;;;;;4.38;1.38;;;14.60;53.40;;;;;;5100397;27;45450;-67
2023/01/30 11:39:03;;;;;;;6.28;1.55;;;14.60;53.40;;;;;;5096140;27;45639;-67
2023/01/30 11:41:31;;;;;;;7.72;1.10;;;14.60;53.40;;;;;;5107022;27;45550;-66
2023/01/30 11:44:03;;;;;;;5.40;1.20;;;14.60;53.40;;;;;;5107951;27;45370;-67
2023/01/30 11:46:33;;;;;;;4.03;1.20;;;14.60;53.60;;;;;;5094831;27;46179;-67
2023/01/30 11:49:02;;;;;;;4.00;1.08;;;14.60;53.90;;;;;;5103570;27;45421;-67
2023/01/30 11:51:30;;;;;;;8.88;1.30;;;14.60;54.20;;;;;;5102085;27;45524;-67
2023/01/30 11:54:00;;;;;;;8.10;1.65;;;14.60;54.40;;;;;;5107108;27;45442;-67
2023/01/30 11:56:34;;;;;;;9.50;1.85;;;14.60;54.50;;;;;;5103787;27;46418;-67
2023/01/30 11:59:05;;;;;;;5.43;1.40;;;14.50;55.70;;;;;;5108990;27;45281;-67
2023/01/30 12:01:34;;;;;;;3.53;1.20;;;14.60;54.80;;;;;;5102581;27;45297;-67
2023/01/30 12:04:05;;;;;;;4.85;1.17;;;14.60;55.10;;;;;;5107662;27;45601;-67
2023/01/30 12:06:33;;;;;;;4.93;1.38;;;14.60;54.80;;;;;;5103004;27;45587;-67
2023/01/30 12:09:02;;;;;;;3.22;1.02;;;14.70;54.80;;;;;;5111214;27;46053;-67
2023/01/30 12:11:32;;;;;;;5.32;1.23;;;14.70;54.80;;;;;;5099138;27;45440;-67
2023/01/30 12:14:17;;;;;;;3.58;1.23;;;14.70;54.60;;;;;;5101984;27;45464;-67
2023/01/30 12:16:56;;;;;;;4.20;1.17;;;14.70;54.50;;;;;;5103797;27;45464;-67
2023/01/30 12:19:35;;;;;;;4.20;1.00;;;14.80;54.70;;;;;;5110050;27;45335;-67
2023/01/30 12:22:12;;;;;;;5.70;1.15;;;14.80;54.70;;;;;;5106501;27;45290;-67
2023/01/30 12:24:43;;;;;;;3.92;0.90;;;14.80;54.70;;;;;;5104312;27;45197;-67
2023/01/30 12:27:17;;;;;;;4.60;0.82;;;14.80;54.70;;;;;;5105453;27;47955;-67
2023/01/30 12:29:57;;;;;;;4.13;1.23;;;14.80;54.80;;;;;;5099357;27;45390;-68
2023/01/30 12:32:27;;;;;;;4.53;1.27;;;14.80;54.90;;;;;;5102161;27;45300;-68
2023/01/30 12:34:55;;;;;;;6.72;1.48;;;14.70;54.80;;;;;;5105579;27;45273;-68
2023/01/30 12:37:44;;;;;;;4.38;1.25;;;14.70;55.10;;;;;;5111211;27;47241;-67
2023/01/30 12:40:22;;;;;;;5.68;1.33;;;14.70;55.00;;;;;;5105608;27;46211;-67
2023/01/30 12:43:06;;;;;;;3.33;0.95;;;14.70;55.00;;;;;;5099971;27;45342;-67
2023/01/30 12:45:40;;;;;;;4.63;1.23;;;14.70;55.00;;;;;;5098048;27;45296;-67
2023/01/30 12:48:40;;;;;;;4.22;1.17;;;14.70;55.10;;;;;;5104641;27;45465;-67
2023/01/30 12:51:18;;;;;;;3.17;1.10;;;14.70;54.90;;;;;;5092080;27;45307;-68
2023/01/30 12:53:56;;;;;;;4.03;1.20;;;14.70;54.90;;;;;;5101375;27;45523;-67
2023/01/30 12:57:03;;;;;;;5.10;1.40;;;14.70;54.90;;;;;;5103111;27;45599;-67
2023/01/30 12:59:43;;;;;;;3.55;1.02;;;14.70;56.10;;;;;;5023788;28;45348;-67
2023/01/30 13:02:29;;;;;;;5.20;1.38;;;14.70;54.70;;;;;;5024552;28;45396;-67
2023/01/30 13:05:14;;;;;;;4.90;1.20;;;14.70;54.50;;;;;;5080112;27;45439;-68
2023/01/30 13:07:50;;;;;;;4.05;1.02;;;14.70;54.50;;;;;;5089003;27;45536;-67
2023/01/30 13:10:26;;;;;;;4.28;1.10;;;14.80;54.60;;;;;;5096467;27;45671;-67
2023/01/30 13:13:05;;;;;;;3.42;0.80;;;14.80;54.60;;;;;;5091593;27;45594;-67